createdAt,value
2023-03-27T00:01:11.764Z,100013.09
2023-03-27T00:03:40.075Z,100023.03
2023-03-27T00:06:11.871Z,100029.22
2023-03-27T00:08:38.303Z,100028.09
2023-03-27T00:11:05.914Z,100027.53
2023-03-27T00:13:33.512Z,100031.97
2023-03-27T00:16:00.147Z,100038.66
2023-03-27T00:18:28.141Z,100050.66
2023-03-27T00:20:58.761Z,100052.31
2023-03-27T00:23:25.429Z,100061.06
2023-03-27T00:25:52.177Z,100060.78
2023-03-27T00:28:18.814Z,100054.91
2023-03-27T00:30:45.397Z,100063.34
2023-03-27T00:33:12.411Z,100062.13
2023-03-27T00:35:39.128Z,100072.44
2023-03-27T00:38:05.524Z,100063.75
2023-03-27T00:40:32.372Z,100070.72
2023-03-27T00:42:59.260Z,100077.97
2023-03-27T00:45:30.585Z,100081.97
2023-03-27T00:48:02.159Z,100086.19
2023-03-27T00:50:34.386Z,100082.56
2023-03-27T00:53:09.112Z,100085.63
2023-03-27T00:55:38.789Z,100095.72
2023-03-27T00:58:09.746Z,100094.28
2023-03-27T01:00:36.856Z,100094.47
2023-03-27T01:03:06.750Z,100100.66
2023-03-27T01:05:34.931Z,100099.91
2023-03-27T01:08:02.212Z,100095.47
2023-03-27T01:10:53.262Z,100098.19
2023-03-27T01:13:41.578Z,100115.72
2023-03-27T01:16:21.981Z,100113.31
2023-03-27T01:18:56.463Z,100117.81
2023-03-27T01:21:47.699Z,100124.66
2023-03-27T01:24:26.645Z,100112.88
2023-03-27T01:27:10.520Z,100110.75
2023-03-27T01:29:49.085Z,100114.31
2023-03-27T01:32:49.774Z,100112.38
2023-03-27T01:35:29.903Z,100121.31
2023-03-27T01:38:24.898Z,100123.22
2023-03-27T01:40:55.110Z,100126.41
2023-03-27T01:43:36.607Z,100137.56
2023-03-27T01:46:09.083Z,100142.50
2023-03-27T01:49:08.771Z,100145.38
2023-03-27T01:51:38.768Z,100151.78
2023-03-27T01:54:15.439Z,100150.66
2023-03-27T01:56:53.519Z,100143.97
2023-03-27T01:59:27.105Z,100150.66
2023-03-27T02:02:17.268Z,100145.72
2023-03-27T02:04:54.457Z,100146.00
2023-03-27T02:07:29.540Z,100144.97
2023-03-27T02:10:02.706Z,100154.53
2023-03-27T02:12:41.076Z,100156.50
2023-03-27T02:15:23.588Z,100164.41
2023-03-27T02:18:05.619Z,100171.63
2023-03-27T02:20:34.032Z,100183.88
2023-03-27T02:23:00.821Z,100188.69
2023-03-27T02:25:27.240Z,100197.25
2023-03-27T02:28:11.975Z,100197.22
2023-03-27T02:30:38.307Z,100202.31
2023-03-27T02:33:08.882Z,100203.63
2023-03-27T02:36:11.172Z,100202.81
2023-03-27T02:38:49.515Z,100207.44
2023-03-27T02:41:37.330Z,100209.75
2023-03-27T02:44:15.760Z,100209.91
2023-03-27T02:46:54.349Z,100213.91
2023-03-27T02:49:29.745Z,100213.53
2023-03-27T02:52:02.186Z,100220.59
2023-03-27T02:54:40.178Z,100226.91
2023-03-27T02:57:11.991Z,100227.22
2023-03-27T02:59:45.331Z,100232.94
2023-03-27T03:02:21.512Z,100236.41
2023-03-27T03:04:57.019Z,100242.06
2023-03-27T03:07:26.495Z,100246.28
2023-03-27T03:09:55.718Z,100244.75
2023-03-27T03:12:23.027Z,100253.91
2023-03-27T03:14:49.579Z,100248.28
2023-03-27T03:17:17.234Z,100251.50
2023-03-27T03:19:43.624Z,100253.28
2023-03-27T03:22:11.203Z,100254.88
2023-03-27T03:24:41.688Z,100261.50
2023-03-27T03:27:08.208Z,100273.38
2023-03-27T03:29:37.577Z,100266.28
2023-03-27T03:32:06.255Z,100270.06
2023-03-27T03:34:35.520Z,100274.72
2023-03-27T03:37:02.093Z,100274.53
2023-03-27T03:39:28.830Z,100285.63
2023-03-27T03:41:55.472Z,100283.31
2023-03-27T03:44:21.962Z,100282.13
2023-03-27T03:46:48.388Z,100297.25
2023-03-27T03:49:14.818Z,100298.59
2023-03-27T03:51:41.400Z,100296.03
2023-03-27T03:54:09.160Z,100289.88
2023-03-27T03:56:37.198Z,100293.53
2023-03-27T03:59:03.754Z,100302.50
2023-03-27T04:01:30.210Z,100303.06
2023-03-27T04:03:56.868Z,100305.41
2023-03-27T04:06:25.915Z,100307.50
2023-03-27T04:08:53.359Z,100313.72
2023-03-27T04:11:19.876Z,100308.69
2023-03-27T04:13:46.504Z,100322.03
2023-03-27T04:16:12.985Z,100310.41
2023-03-27T04:18:41.144Z,100314.84
2023-03-27T04:21:15.909Z,100320.56
2023-03-27T04:23:43.626Z,100319.50
2023-03-27T04:26:12.296Z,100327.03
2023-03-27T04:28:39.662Z,100329.63
2023-03-27T04:31:07.560Z,100341.31
2023-03-27T04:33:35.942Z,100341.09
2023-03-27T04:36:06.638Z,100340.84
2023-03-27T04:38:38.953Z,100354.81
2023-03-27T04:41:06.042Z,100352.47
2023-03-27T04:43:36.378Z,100348.00
2023-03-27T04:46:05.857Z,100358.38
2023-03-27T04:48:32.795Z,100359.25
2023-03-27T04:50:59.421Z,100367.91
2023-03-27T04:53:30.086Z,100368.56
2023-03-27T04:55:57.187Z,100363.06
2023-03-27T04:58:25.735Z,100374.13
2023-03-27T05:00:56.261Z,100377.53
2023-03-27T05:03:28.363Z,100372.34
2023-03-27T05:05:56.072Z,100384.06
2023-03-27T05:08:22.735Z,100392.41
2023-03-27T05:10:49.788Z,100390.00
2023-03-27T05:13:16.444Z,100389.69
2023-03-27T05:15:43.168Z,100389.72
2023-03-27T05:18:09.945Z,100391.00
2023-03-27T05:20:36.681Z,100390.91
2023-03-27T05:23:03.317Z,100398.44
2023-03-27T05:25:31.585Z,100407.22
2023-03-27T05:27:58.150Z,100404.72
2023-03-27T05:30:26.103Z,100408.41
2023-03-27T05:32:53.768Z,100410.72
2023-03-27T05:35:23.201Z,100418.22
2023-03-27T05:37:52.483Z,100425.03
2023-03-27T05:40:25.246Z,100430.13
2023-03-27T05:42:53.382Z,100427.13
2023-03-27T05:45:20.715Z,100429.44
2023-03-27T05:47:55.522Z,100437.94
2023-03-27T05:50:28.471Z,100441.66
2023-03-27T05:53:12.805Z,100441.56
2023-03-27T05:55:39.408Z,100452.25
2023-03-27T05:58:09.572Z,100460.47
2023-03-27T06:00:38.318Z,100461.56
2023-03-27T06:03:05.131Z,100463.25
2023-03-27T06:05:32.566Z,100471.75
2023-03-27T06:07:59.045Z,100468.84
2023-03-27T06:10:28.271Z,100472.34
2023-03-27T06:13:06.419Z,100474.22
2023-03-27T06:15:33.820Z,100472.75
2023-03-27T06:18:00.377Z,100476.03
2023-03-27T06:20:27.593Z,100473.44
2023-03-27T06:22:56.696Z,100479.56
2023-03-27T06:25:24.842Z,100472.44
2023-03-27T06:27:51.570Z,100487.19
2023-03-27T06:30:20.340Z,100500.19
2023-03-27T06:32:49.105Z,100505.53
2023-03-27T06:35:16.318Z,100512.47
2023-03-27T06:37:48.303Z,100508.81
2023-03-27T06:40:22.724Z,100515.66
2023-03-27T06:42:56.128Z,100512.03
2023-03-27T06:45:24.872Z,100520.78
2023-03-27T06:47:55.289Z,100520.69
2023-03-27T06:50:25.851Z,100525.78
2023-03-27T06:52:52.511Z,100532.88
2023-03-27T06:55:20.977Z,100536.41
2023-03-27T06:57:52.618Z,100544.16
2023-03-27T07:00:25.835Z,100540.03
2023-03-27T07:02:57.450Z,100552.25
2023-03-27T07:05:26.398Z,100545.69
2023-03-27T07:07:54.173Z,100557.84
2023-03-27T07:10:22.350Z,100551.28
2023-03-27T07:12:50.466Z,100553.00
2023-03-27T07:15:17.925Z,100547.31
2023-03-27T07:17:48.936Z,100557.09
2023-03-27T07:20:16.202Z,100563.16
2023-03-27T07:22:43.073Z,100557.13
2023-03-27T07:25:12.112Z,100570.13
2023-03-27T07:27:38.889Z,100569.88
2023-03-27T07:30:07.866Z,100574.94
2023-03-27T07:32:37.878Z,100574.81
2023-03-27T07:35:05.359Z,100575.81
2023-03-27T07:37:31.868Z,100584.81
2023-03-27T07:39:58.396Z,100585.91
2023-03-27T07:42:24.882Z,100589.19
2023-03-27T07:44:51.497Z,100587.13
2023-03-27T07:47:18.153Z,100589.97
2023-03-27T07:49:44.552Z,100590.75
2023-03-27T07:52:11.022Z,100596.78
2023-03-27T07:54:37.467Z,100607.56
2023-03-27T07:57:05.091Z,100603.47
2023-03-27T07:59:32.332Z,100606.94
2023-03-27T08:01:58.803Z,100618.34
2023-03-27T08:04:25.358Z,100615.50
2023-03-27T08:06:54.530Z,100621.22
2023-03-27T08:09:21.357Z,100621.78
2023-03-27T08:11:50.373Z,100622.41
2023-03-27T08:14:16.996Z,100628.59
2023-03-27T08:16:43.570Z,100634.66
2023-03-27T08:19:11.364Z,100636.81
2023-03-27T08:21:38.477Z,100637.19
2023-03-27T08:24:05.362Z,100634.72
2023-03-27T08:26:32.177Z,100637.81
2023-03-27T08:29:00.229Z,100650.03
2023-03-27T08:31:30.602Z,100639.91
2023-03-27T08:33:57.329Z,100639.53
2023-03-27T08:36:24.146Z,100651.59
2023-03-27T08:38:50.775Z,100654.38
2023-03-27T08:41:40.537Z,100663.69
2023-03-27T08:44:13.080Z,100662.13
2023-03-27T08:47:02.827Z,100661.63
2023-03-27T08:49:41.158Z,100669.69
2023-03-27T08:52:19.469Z,100664.16
2023-03-27T08:54:53.430Z,100668.53
2023-03-27T08:57:22.678Z,100670.56
2023-03-27T08:59:52.368Z,100684.41
2023-03-27T09:02:40.785Z,100683.28
2023-03-27T09:05:54.062Z,100673.09
2023-03-27T09:08:40.637Z,100681.22
2023-03-27T09:11:51.946Z,100690.13
2023-03-27T09:14:33.721Z,100690.81
2023-03-27T09:17:04.664Z,100686.31
2023-03-27T09:19:54.883Z,100691.53
2023-03-27T09:22:25.116Z,100698.63
2023-03-27T09:24:56.366Z,100699.94
2023-03-27T09:27:32.490Z,100709.53
2023-03-27T09:30:08.471Z,100700.13
2023-03-27T09:32:35.052Z,100704.59
2023-03-27T09:35:01.679Z,100703.25
2023-03-27T09:37:28.200Z,100699.50
2023-03-27T09:39:55.162Z,100705.47
2023-03-27T09:42:30.604Z,100712.47
2023-03-27T09:45:01.784Z,100715.19
2023-03-27T09:47:58.009Z,100713.94
2023-03-27T09:50:27.727Z,100711.41
2023-03-27T09:53:18.956Z,100710.78
2023-03-27T09:56:01.109Z,100716.56
2023-03-27T09:58:35.375Z,100719.13
2023-03-27T10:01:19.837Z,100722.66
2023-03-27T10:03:50.059Z,100736.22
2023-03-27T10:06:41.125Z,100737.53
2023-03-27T10:09:22.563Z,100727.69
2023-03-27T10:11:50.988Z,100742.94
2023-03-27T10:14:20.247Z,100744.91
2023-03-27T10:16:47.859Z,100757.84
2023-03-27T10:19:37.114Z,100744.56
2023-03-27T10:22:25.954Z,100751.56
2023-03-27T10:24:53.519Z,100752.22
2023-03-27T10:27:26.545Z,100743.88
2023-03-27T10:29:53.078Z,100754.63
2023-03-27T10:32:40.168Z,100745.63
2023-03-27T10:35:26.955Z,100756.16
2023-03-27T10:37:54.781Z,100735.53
2023-03-27T10:40:26.410Z,100745.34
2023-03-27T10:42:55.598Z,100751.75
2023-03-27T10:45:23.543Z,100756.88
2023-03-27T10:47:59.238Z,100752.91
2023-03-27T10:50:34.402Z,100743.44
2023-03-27T10:53:27.315Z,100751.47
2023-03-27T10:56:05.769Z,100761.69
2023-03-27T10:58:53.160Z,100762.94
2023-03-27T11:01:35.313Z,100767.44
2023-03-27T11:04:15.253Z,100765.56
2023-03-27T11:06:44.803Z,100781.38
2023-03-27T11:09:33.681Z,100779.75
2023-03-27T11:12:05.172Z,100778.91
2023-03-27T11:14:59.190Z,100784.56
2023-03-27T11:17:36.296Z,100766.91
2023-03-27T11:20:08.502Z,100761.09
2023-03-27T11:22:42.085Z,100769.38
2023-03-27T11:25:21.917Z,100779.78
2023-03-27T11:28:03.483Z,100787.81
2023-03-27T11:31:12.971Z,100799.31
2023-03-27T11:33:50.582Z,100794.66
2023-03-27T11:36:49.444Z,100773.31
2023-03-27T11:39:25.223Z,100777.78
2023-03-27T11:41:58.306Z,100782.94
2023-03-27T11:44:26.452Z,100783.25
2023-03-27T11:47:11.827Z,100782.88
2023-03-27T11:49:47.701Z,100795.38
2023-03-27T11:52:30.860Z,100800.25
2023-03-27T11:55:10.685Z,100794.56
2023-03-27T11:57:51.050Z,100798.31
2023-03-27T12:00:31.612Z,100799.19
2023-03-27T12:03:22.763Z,100801.50
2023-03-27T12:05:58.825Z,100804.38
2023-03-27T12:08:41.156Z,100806.75
2023-03-27T12:11:11.246Z,100813.69
2023-03-27T12:13:42.296Z,100817.38
2023-03-27T12:16:36.862Z,100807.13
2023-03-27T12:19:32.468Z,100830.88
2023-03-27T12:22:23.890Z,100816.81
2023-03-27T12:25:06.060Z,100811.78
2023-03-27T12:27:53.742Z,100807.81
2023-03-27T12:30:33.061Z,100810.06
2023-03-27T12:33:16.523Z,100809.28
2023-03-27T12:35:47.302Z,100815.88
2023-03-27T12:38:28.904Z,100811.06
2023-03-27T12:41:05.261Z,100822.06
2023-03-27T12:43:39.567Z,100833.66
2023-03-27T12:46:12.539Z,100837.84
2023-03-27T12:48:54.012Z,100848.34
2023-03-27T12:52:04.181Z,100831.38
2023-03-27T12:54:42.415Z,100832.50
2023-03-27T12:57:19.266Z,100834.50
2023-03-27T12:59:48.904Z,100829.81
2023-03-27T13:02:16.054Z,100831.94
2023-03-27T13:04:48.646Z,100826.19
2023-03-27T13:07:28.662Z,100822.94
2023-03-27T13:10:16.887Z,100823.66
2023-03-27T13:13:02.515Z,100822.19
2023-03-27T13:16:00.175Z,100819.56
2023-03-27T13:19:00.740Z,100805.84
2023-03-27T13:22:02.603Z,100815.91
2023-03-27T13:25:00.307Z,100809.00
2023-03-27T13:27:40.888Z,100814.34
2023-03-27T13:30:41.638Z,100814.63
2023-03-27T13:33:16.285Z,100812.91
2023-03-27T13:35:58.039Z,100815.50
2023-03-27T13:38:46.954Z,100806.88
2023-03-27T13:41:44.083Z,100813.53
2023-03-27T13:44:23.996Z,100812.16
2023-03-27T13:47:06.597Z,100811.78
2023-03-27T13:49:59.223Z,100809.66
2023-03-27T13:52:44.039Z,100817.44
2023-03-27T13:55:17.085Z,100817.06
2023-03-27T13:58:15.190Z,100807.19
2023-03-27T14:01:09.332Z,100795.75
2023-03-27T14:04:13.566Z,100814.28
2023-03-27T14:06:51.886Z,100824.38
2023-03-27T14:09:36.335Z,100799.59
2023-03-27T14:12:12.944Z,100819.44
2023-03-27T14:15:16.409Z,100803.41
2023-03-27T14:17:42.894Z,100809.38
2023-03-27T14:20:23.956Z,100810.78
2023-03-27T14:22:56.757Z,100793.13
2023-03-27T14:25:34.119Z,100815.25
2023-03-27T14:28:01.310Z,100796.75
2023-03-27T14:30:32.554Z,100806.97
2023-03-27T14:33:07.956Z,100819.44
2023-03-27T14:35:40.365Z,100824.25
2023-03-27T14:38:24.972Z,100816.00
2023-03-27T14:40:56.396Z,100808.19
2023-03-27T14:43:25.881Z,100823.09
2023-03-27T14:45:56.842Z,100835.78
2023-03-27T14:48:29.800Z,100829.06
2023-03-27T14:51:01.896Z,100816.03
2023-03-27T14:53:36.362Z,100819.44
2023-03-27T14:56:19.910Z,100823.13
2023-03-27T14:58:47.108Z,100842.31
2023-03-27T15:01:17.096Z,100840.00
2023-03-27T15:03:45.971Z,100842.03
2023-03-27T15:06:19.398Z,100874.41
2023-03-27T15:08:50.169Z,100874.50
2023-03-27T15:11:21.484Z,100879.38
2023-03-27T15:13:48.437Z,100871.84
2023-03-27T15:16:22.323Z,100890.84
2023-03-27T15:19:18.384Z,100885.75
2023-03-27T15:24:59.754Z,100894.56
2023-03-27T15:27:48.330Z,100901.56
2023-03-27T15:30:30.203Z,100910.72
2023-03-27T15:33:02.001Z,100900.06
2023-03-27T15:35:34.259Z,100889.91
2023-03-27T15:38:02.280Z,100877.16
2023-03-27T15:40:52.561Z,100878.72
2023-03-27T15:43:22.442Z,100876.19
2023-03-27T15:46:07.540Z,100876.97
2023-03-27T15:48:37.921Z,100870.50
2023-03-27T15:51:25.981Z,100858.53
2023-03-27T15:53:55.990Z,100855.28
2023-03-27T15:56:27.203Z,100859.63
2023-03-27T15:59:01.572Z,100850.28
2023-03-27T16:01:34.814Z,100851.72
2023-03-27T16:04:12.556Z,100842.00
2023-03-27T16:06:44.192Z,100858.28
2023-03-27T16:09:19.361Z,100827.81
2023-03-27T16:11:47.845Z,100842.66
2023-03-27T16:14:32.715Z,100826.28
2023-03-27T16:17:08.681Z,100830.81
2023-03-27T16:20:08.088Z,100833.03
2023-03-27T16:22:37.213Z,100848.09
2023-03-27T16:25:07.177Z,100845.41
2023-03-27T16:27:47.449Z,100846.53
2023-03-27T16:30:24.013Z,100846.56
2023-03-27T16:32:51.041Z,100853.13
2023-03-27T16:35:18.268Z,100863.75
2023-03-27T16:37:45.683Z,100858.59
2023-03-27T16:40:12.423Z,100872.88
2023-03-27T16:42:38.952Z,100878.59
2023-03-27T16:45:06.040Z,100868.38
2023-03-27T16:47:32.634Z,100874.34
2023-03-27T16:50:10.915Z,100877.22
2023-03-27T16:52:37.974Z,100881.31
2023-03-27T16:55:07.007Z,100885.91
2023-03-27T16:57:34.199Z,100881.00
2023-03-27T17:00:00.747Z,100899.28
2023-03-27T17:02:28.707Z,100888.06
2023-03-27T17:04:55.387Z,100883.50
2023-03-27T17:07:21.975Z,100894.31
2023-03-27T17:09:48.414Z,100899.47
2023-03-27T17:12:14.802Z,100903.84
2023-03-27T17:14:41.219Z,100892.13
2023-03-27T17:17:07.698Z,100897.84
2023-03-27T17:19:34.183Z,100897.34
2023-03-27T17:22:00.742Z,100902.53
2023-03-27T17:24:27.168Z,100907.88
2023-03-27T17:26:53.699Z,100914.16
2023-03-27T17:29:20.284Z,100909.00
2023-03-27T17:31:46.778Z,100910.44
2023-03-27T17:34:13.366Z,100910.09
2023-03-27T17:36:47.267Z,100916.63
2023-03-27T17:39:19.176Z,100915.31
2023-03-27T17:41:45.709Z,100910.38
2023-03-27T17:44:13.004Z,100890.22
2023-03-27T17:46:39.579Z,100907.13
2023-03-27T17:49:06.088Z,100894.41
2023-03-27T17:51:34.119Z,100894.50
2023-03-27T17:54:01.063Z,100894.31
2023-03-27T17:56:27.506Z,100899.28
2023-03-27T17:58:53.998Z,100906.63
2023-03-27T18:01:23.115Z,100907.03
2023-03-27T18:03:50.414Z,100902.66
2023-03-27T18:06:17.995Z,100898.66
2023-03-27T18:08:46.230Z,100903.63
2023-03-27T18:11:14.934Z,100911.81
2023-03-27T18:13:41.885Z,100907.31
2023-03-27T18:16:10.621Z,100909.66
2023-03-27T18:18:39.034Z,100898.38
2023-03-27T18:21:06.219Z,100903.38
2023-03-27T18:23:34.791Z,100907.03
2023-03-27T18:26:08.345Z,100899.31
2023-03-27T18:28:35.747Z,100902.09
2023-03-27T18:31:05.322Z,100896.00
2023-03-27T18:33:32.177Z,100899.09
2023-03-27T18:35:59.053Z,100893.66
2023-03-27T18:38:27.127Z,100893.53
2023-03-27T18:40:56.145Z,100892.34
2023-03-27T18:43:23.325Z,100887.00
2023-03-27T18:46:01.476Z,100902.50
2023-03-27T18:48:29.678Z,100892.13
2023-03-27T18:50:58.229Z,100892.13
2023-03-27T18:53:26.100Z,100896.03
2023-03-27T18:55:53.836Z,100892.50
2023-03-27T18:58:24.155Z,100889.34
2023-03-27T19:00:51.143Z,100896.56
2023-03-27T19:03:19.878Z,100902.41
2023-03-27T19:05:51.272Z,100900.81
2023-03-27T19:08:18.938Z,100895.41
2023-03-27T19:10:45.585Z,100893.53
2023-03-27T19:13:12.543Z,100890.38
2023-03-27T19:15:41.074Z,100898.38
2023-03-27T19:18:07.831Z,100882.66
2023-03-27T19:20:34.560Z,100895.34
2023-03-27T19:23:01.195Z,100894.34
2023-03-27T19:25:27.704Z,100898.97
2023-03-27T19:27:54.398Z,100890.84
2023-03-27T19:30:21.124Z,100897.16
2023-03-27T19:32:47.634Z,100891.44
2023-03-27T19:35:14.271Z,100886.44
2023-03-27T19:37:41.664Z,100889.72
2023-03-27T19:40:09.396Z,100896.97
2023-03-27T19:42:36.284Z,100885.19
2023-03-27T19:45:03.031Z,100900.75
2023-03-27T19:47:29.583Z,100887.69
2023-03-27T19:49:56.107Z,100887.69
2023-03-27T19:52:23.088Z,100873.19
2023-03-27T19:54:49.827Z,100874.63
2023-03-27T19:57:16.390Z,100879.34
2023-03-27T19:59:43.000Z,100882.00
2023-03-27T20:02:11.924Z,100888.50
2023-03-27T20:04:38.731Z,100885.13
2023-03-27T20:07:07.532Z,100885.75
2023-03-27T20:09:34.413Z,100882.09
2023-03-27T20:12:01.335Z,100885.63
2023-03-27T20:14:28.030Z,100886.53
2023-03-27T20:16:54.629Z,100870.25
2023-03-27T20:19:22.794Z,100874.78
2023-03-27T20:21:49.383Z,100870.94
2023-03-27T20:24:18.001Z,100872.06
2023-03-27T20:26:48.285Z,100855.91
2023-03-27T20:29:17.851Z,100870.97
2023-03-27T20:31:45.314Z,100866.69
2023-03-27T20:34:12.081Z,100876.19
2023-03-27T20:36:41.132Z,100866.75
2023-03-27T20:39:08.139Z,100848.91
2023-03-27T20:41:38.859Z,100865.34
2023-03-27T20:44:14.960Z,100863.94
2023-03-27T20:46:51.198Z,100864.97
2023-03-27T20:49:39.957Z,100867.19
2023-03-27T20:52:08.879Z,100863.69
2023-03-27T20:54:35.335Z,100855.41
2023-03-27T20:57:02.476Z,100861.75
2023-03-27T20:59:29.863Z,100876.38
2023-03-27T21:01:56.645Z,100865.28
2023-03-27T21:04:25.518Z,100880.34
2023-03-27T21:06:54.799Z,100870.09
2023-03-27T21:09:23.455Z,100858.16
2023-03-27T21:11:50.303Z,100859.78
2023-03-27T21:14:17.249Z,100851.50
2023-03-27T21:16:43.812Z,100851.31
2023-03-27T21:19:11.566Z,100846.69
2023-03-27T21:21:38.636Z,100853.81
2023-03-27T21:24:05.971Z,100854.66
2023-03-27T21:26:33.006Z,100854.28
2023-03-27T21:28:59.457Z,100856.34
2023-03-27T21:31:25.884Z,100863.34
2023-03-27T21:33:52.363Z,100855.56
2023-03-27T21:36:18.896Z,100860.16
2023-03-27T21:38:45.722Z,100866.50
2023-03-27T21:41:15.270Z,100869.91
2023-03-27T21:43:41.678Z,100867.72
2023-03-27T21:46:08.311Z,100872.16
2023-03-27T21:48:34.820Z,100880.78
2023-03-27T21:51:03.406Z,100887.97
2023-03-27T21:53:30.061Z,100883.50
2023-03-27T21:55:57.561Z,100872.50
2023-03-27T21:58:24.862Z,100873.72
2023-03-27T22:00:51.446Z,100888.97
2023-03-27T22:03:17.911Z,100884.63
2023-03-27T22:05:49.195Z,100889.22
2023-03-27T22:08:21.500Z,100893.13
2023-03-27T22:10:47.953Z,100889.31
2023-03-27T22:13:14.378Z,100894.63
2023-03-27T22:15:41.184Z,100896.66
2023-03-27T22:18:07.888Z,100901.25
2023-03-27T22:20:34.353Z,100903.78
2023-03-27T22:23:00.831Z,100898.53
2023-03-27T22:25:27.348Z,100897.25
2023-03-27T22:27:53.819Z,100897.41
2023-03-27T22:30:20.229Z,100898.53
2023-03-27T22:32:46.700Z,100893.22
2023-03-27T22:35:13.195Z,100908.56
2023-03-27T22:37:39.852Z,100914.25
2023-03-27T22:40:07.573Z,100910.13
2023-03-27T22:42:35.044Z,100920.19
2023-03-27T22:45:01.496Z,100923.72
2023-03-27T22:47:27.957Z,100924.69
2023-03-27T22:49:54.382Z,100925.75
2023-03-27T22:52:21.009Z,100936.00
2023-03-27T22:54:47.479Z,100936.69
2023-03-27T22:57:13.920Z,100941.69
2023-03-27T22:59:40.385Z,100950.38
2023-03-27T23:02:06.963Z,100955.22
2023-03-27T23:04:33.547Z,100956.72
2023-03-27T23:07:01.306Z,100957.09
2023-03-27T23:09:27.782Z,100950.81
2023-03-27T23:11:54.228Z,100959.50
2023-03-27T23:14:20.650Z,100965.34
2023-03-27T23:16:47.118Z,100982.84
2023-03-27T23:19:13.516Z,101000.34
2023-03-27T23:21:40.021Z,100993.47
2023-03-27T23:24:06.762Z,100972.06
2023-03-27T23:26:33.137Z,100969.28
2023-03-27T23:28:59.540Z,100967.09
2023-03-27T23:31:26.036Z,100969.84
2023-03-27T23:33:52.550Z,100977.66
2023-03-27T23:36:24.593Z,100978.56
2023-03-27T23:38:52.641Z,100972.19
2023-03-27T23:41:20.246Z,100987.03
2023-03-27T23:43:46.925Z,100991.44
2023-03-27T23:46:13.607Z,100987.09
2023-03-27T23:48:41.865Z,100991.50
2023-03-27T23:51:09.559Z,100984.19
2023-03-27T23:53:36.608Z,100988.47
2023-03-27T23:56:03.613Z,100998.84
2023-03-27T23:58:32.134Z,101008.69
